Kezdőlap
METAR-TAF:

METAR-TAF

Repülőterek :

Sanford Regional Airport

Sanford, Maine, Amerikai Egyesült Államok

földrajzi szélesség: 43-24N, földrajzi hosszúság: 070-43W, magasság: 74 m

Jelenlegi meteorológiai megfigyelések

A jelentés 13 perccel ezelõtt készült, 23:11 UTC
Különbözõ irányokból fújó szél 3 kt
Hőmérséklet -8°C
Páratartalom 79%
Légköri nyomás 1022 hPa
Látótávolság: 2.4 km
Borult 1600 lábon
enyhe havazás

METAR: KSFM 182311Z AUTO VRB03KT 1 1/2SM -SN OVC016 M08/M11 A3019 RMK AO2 FZRANO PNO $

Idő: 18:24 (23:24 UTC)


TAF: hiányzik

Meteorológiai megfigyelések és előrejelzések több, mint 4000 repülőtéren (METAR és TAF jelentéseket).

A térképen piros és sárga pontok jelzik az elérhető meteorológiai állomásokat.

Mozgassa az egeret a pont fölött, hogy megjelenjen az állomás neve.

Azután kattintson az időjárási megfigyelések és előrejelzések megtekintéséhez.

A térkép megváltoztatása: kattintson a fekete keresztel jelölt zöld gombra ráközelítéshez, a vonallal jelölt zöld gombra távolításhoz, vagy a zöld nyilakra a szomszédos térképek eléréséhez.


METAR-TAF: